createdAt,value
2022-12-23T00:01:16.726Z,80.36
2022-12-23T00:03:46.200Z,79.80
2022-12-23T00:06:18.080Z,79.71
2022-12-23T00:08:47.664Z,79.74
2022-12-23T00:11:19.851Z,79.52
2022-12-23T00:14:06.382Z,80.21
2022-12-23T00:16:39.365Z,80.68
2022-12-23T00:19:08.502Z,80.24
2022-12-23T00:21:38.063Z,80.34
2022-12-23T00:24:07.743Z,80.75
2022-12-23T00:26:37.579Z,80.09
2022-12-23T00:29:06.867Z,80.08
2022-12-23T00:31:37.779Z,80.17
2022-12-23T00:34:07.049Z,80.68
2022-12-23T00:36:38.417Z,79.81
2022-12-23T00:39:27.260Z,81.33
2022-12-23T00:42:14.068Z,80.94
2022-12-23T00:44:44.207Z,80.81
2022-12-23T00:47:36.121Z,80.42
2022-12-23T00:50:04.764Z,81.37
2022-12-23T00:52:34.567Z,81.22
2022-12-23T00:55:03.776Z,81.09
2022-12-23T00:57:33.162Z,81.39
2022-12-23T01:00:02.261Z,81.78
2022-12-23T01:02:50.613Z,81.88
2022-12-23T01:08:20.774Z,81.50
2022-12-23T01:10:50.233Z,82.35
2022-12-23T01:13:19.384Z,82.46
2022-12-23T01:15:48.951Z,82.74
2022-12-23T01:18:18.106Z,82.83
2022-12-23T01:20:47.601Z,83.41
2022-12-23T01:23:16.811Z,83.21
2022-12-23T01:25:48.109Z,83.68
2022-12-23T01:28:17.404Z,83.68
2022-12-23T01:30:46.746Z,83.56
2022-12-23T01:33:15.890Z,83.28
2022-12-23T01:35:45.215Z,82.49
2022-12-23T01:38:14.277Z,83.68
2022-12-23T01:40:46.542Z,83.70
2022-12-23T01:43:16.854Z,83.93
2022-12-23T01:45:46.901Z,84.06
2022-12-23T01:48:19.695Z,84.06
2022-12-23T01:50:54.222Z,84.12
2022-12-23T01:53:26.397Z,84.27
2022-12-23T01:56:01.914Z,84.29
2022-12-23T01:58:36.164Z,84.99
2022-12-23T02:01:38.618Z,84.25
2022-12-23T02:04:10.913Z,84.78
2022-12-23T02:06:59.611Z,84.93
2022-12-23T02:09:32.000Z,84.12
2022-12-23T02:12:31.160Z,83.90
2022-12-23T02:15:30.277Z,83.66
2022-12-23T02:18:21.309Z,84.46
2022-12-23T02:21:23.569Z,84.55
2022-12-23T02:24:39.178Z,84.40
2022-12-23T02:27:17.135Z,83.79
2022-12-23T02:30:07.762Z,84.79
2022-12-23T02:33:00.316Z,84.13
2022-12-23T02:35:35.686Z,84.21
2022-12-23T02:38:13.082Z,84.33
2022-12-23T02:40:52.242Z,84.26
2022-12-23T02:43:28.155Z,83.37
2022-12-23T02:46:06.219Z,84.41
2022-12-23T02:48:40.877Z,84.39
2022-12-23T02:51:13.156Z,84.06
2022-12-23T02:53:47.947Z,84.38
2022-12-23T02:56:19.504Z,84.16
2022-12-23T02:58:53.316Z,84.43
2022-12-23T03:01:25.652Z,84.18
2022-12-23T03:03:56.558Z,84.15
2022-12-23T03:06:30.538Z,83.45
2022-12-23T03:09:01.585Z,83.25
2022-12-23T03:11:41.398Z,84.30
2022-12-23T03:14:35.030Z,84.58
2022-12-23T03:17:19.057Z,84.54
2022-12-23T03:19:56.363Z,84.04
2022-12-23T03:22:34.025Z,84.53
2022-12-23T03:25:10.348Z,84.23
2022-12-23T03:27:44.328Z,83.72
2022-12-23T03:35:32.727Z,85.43
2022-12-23T03:38:04.659Z,85.53
2022-12-23T03:40:39.792Z,85.95
2022-12-23T03:43:14.291Z,85.34
2022-12-23T03:45:48.198Z,86.44
2022-12-23T03:48:22.354Z,86.83
2022-12-23T03:50:57.065Z,86.27
2022-12-23T03:53:31.887Z,87.06
2022-12-23T03:56:04.499Z,87.08
2022-12-23T03:58:40.790Z,87.26
2022-12-23T04:01:18.479Z,87.18
2022-12-23T04:03:56.036Z,87.68
2022-12-23T04:06:33.829Z,87.07
2022-12-23T04:09:04.714Z,86.89
2022-12-23T04:11:35.320Z,87.30
2022-12-23T04:14:04.883Z,86.60
2022-12-23T04:16:34.861Z,86.04
2022-12-23T04:19:04.341Z,86.64
2022-12-23T04:21:34.780Z,86.79
2022-12-23T04:24:04.320Z,87.34
2022-12-23T04:26:33.590Z,87.00
2022-12-23T04:29:03.011Z,87.36
2022-12-23T04:31:32.177Z,87.33
2022-12-23T04:34:01.861Z,86.91
2022-12-23T04:36:30.986Z,87.16
2022-12-23T04:39:01.886Z,86.96
2022-12-23T04:41:31.002Z,87.32
2022-12-23T04:44:00.366Z,86.84
2022-12-23T04:46:29.604Z,86.60
2022-12-23T04:48:59.047Z,86.20
2022-12-23T04:51:28.279Z,85.86
2022-12-23T04:53:57.661Z,86.69
2022-12-23T04:56:28.150Z,85.74
2022-12-23T04:58:57.633Z,85.69
2022-12-23T05:01:26.870Z,85.44
2022-12-23T05:03:56.436Z,84.94
2022-12-23T05:06:25.486Z,84.69
2022-12-23T05:08:55.142Z,85.29
2022-12-23T05:11:24.270Z,85.97
2022-12-23T05:13:55.056Z,86.27
2022-12-23T05:16:24.291Z,86.02
2022-12-23T05:18:53.673Z,85.69
2022-12-23T05:21:22.836Z,85.20
2022-12-23T05:23:52.312Z,85.86
2022-12-23T05:26:21.629Z,86.15
2022-12-23T05:28:51.078Z,85.77
2022-12-23T05:31:21.562Z,86.12
2022-12-23T05:33:51.044Z,86.27
2022-12-23T05:36:20.313Z,85.51
2022-12-23T05:38:49.700Z,85.74
2022-12-23T05:41:19.192Z,85.89
2022-12-23T05:43:48.625Z,86.13
2022-12-23T05:46:24.340Z,85.73
2022-12-23T05:48:57.449Z,85.36
2022-12-23T05:51:26.763Z,85.17
2022-12-23T05:53:56.279Z,85.88
2022-12-23T05:56:25.557Z,86.01
2022-12-23T05:58:55.224Z,86.60
2022-12-23T06:01:24.401Z,86.13
2022-12-23T06:03:53.885Z,86.69
2022-12-23T06:06:24.724Z,86.40
2022-12-23T06:08:59.338Z,85.82
2022-12-23T06:11:29.065Z,86.65
2022-12-23T06:13:58.472Z,85.71
2022-12-23T06:16:27.765Z,85.57
2022-12-23T06:18:57.647Z,84.72
2022-12-23T06:21:28.876Z,85.13
2022-12-23T06:23:58.427Z,85.58
2022-12-23T06:26:27.588Z,85.84
2022-12-23T06:28:57.007Z,85.68
2022-12-23T06:31:26.228Z,85.98
2022-12-23T06:33:55.650Z,85.26
2022-12-23T06:36:24.806Z,85.43
2022-12-23T06:38:55.719Z,85.49
2022-12-23T06:41:24.934Z,85.05
2022-12-23T06:43:54.833Z,84.74
2022-12-23T06:46:23.992Z,85.14
2022-12-23T06:48:53.418Z,86.19
2022-12-23T06:51:22.561Z,86.48
2022-12-23T06:53:52.055Z,85.96
2022-12-23T06:56:23.109Z,86.79
2022-12-23T06:58:53.103Z,87.60
2022-12-23T07:01:22.778Z,87.52
2022-12-23T07:03:52.499Z,87.36
2022-12-23T07:06:21.731Z,87.15
2022-12-23T07:08:52.750Z,87.23
2022-12-23T07:11:23.389Z,86.60
2022-12-23T07:13:52.872Z,86.59
2022-12-23T07:16:22.097Z,86.84
2022-12-23T07:18:51.495Z,85.86
2022-12-23T07:21:28.623Z,86.26
2022-12-23T07:23:58.990Z,85.92
2022-12-23T07:26:29.406Z,86.13
2022-12-23T07:28:58.948Z,85.95
2022-12-23T07:31:28.360Z,85.61
2022-12-23T07:33:57.738Z,85.92
2022-12-23T07:36:26.848Z,86.00
2022-12-23T07:38:56.431Z,85.51
2022-12-23T07:41:25.692Z,85.65
2022-12-23T07:43:56.656Z,85.26
2022-12-23T07:46:25.786Z,85.39
2022-12-23T07:48:55.263Z,84.92
2022-12-23T07:51:24.695Z,85.54
2022-12-23T07:53:54.274Z,85.41
2022-12-23T07:56:23.525Z,86.01
2022-12-23T07:58:53.889Z,84.67
2022-12-23T08:01:24.647Z,84.23
2022-12-23T08:03:54.231Z,85.13
2022-12-23T08:06:23.474Z,85.49
2022-12-23T08:08:53.066Z,84.89
2022-12-23T08:11:22.231Z,85.05
2022-12-23T08:13:52.870Z,85.18
2022-12-23T08:16:23.375Z,84.94
2022-12-23T08:18:52.888Z,85.66
2022-12-23T08:21:22.128Z,85.11
2022-12-23T08:23:52.373Z,85.56
2022-12-23T08:26:23.123Z,86.29
2022-12-23T08:28:54.049Z,85.61
2022-12-23T08:31:26.719Z,85.58
2022-12-23T08:33:58.435Z,84.61
2022-12-23T08:36:30.124Z,84.29
2022-12-23T08:39:01.654Z,84.42
2022-12-23T08:41:32.726Z,84.38
2022-12-23T08:44:02.481Z,84.40
2022-12-23T08:46:33.367Z,84.44
2022-12-23T08:49:03.149Z,84.59
2022-12-23T08:51:32.568Z,84.73
2022-12-23T08:54:02.695Z,83.90
2022-12-23T08:56:34.549Z,83.06
2022-12-23T08:59:04.543Z,83.07
2022-12-23T09:01:36.056Z,83.20
2022-12-23T09:04:06.799Z,82.46
2022-12-23T09:06:38.459Z,82.41
2022-12-23T09:09:08.791Z,83.85
2022-12-23T09:11:38.388Z,83.58
2022-12-23T09:14:10.297Z,83.05
2022-12-23T09:16:41.214Z,83.49
2022-12-23T09:19:10.823Z,83.61
2022-12-23T09:21:39.928Z,83.78
2022-12-23T09:24:09.613Z,84.22
2022-12-23T09:26:38.982Z,85.19
2022-12-23T09:29:08.442Z,83.44
2022-12-23T09:31:39.464Z,83.42
2022-12-23T09:34:12.129Z,83.93
2022-12-23T09:36:41.257Z,83.47
2022-12-23T09:39:12.635Z,83.96
2022-12-23T09:42:01.721Z,83.79
2022-12-23T09:44:44.744Z,83.18
2022-12-23T09:47:21.174Z,82.73
2022-12-23T09:49:54.502Z,83.21
2022-12-23T09:52:29.771Z,82.74
2022-12-23T09:54:59.178Z,82.41
2022-12-23T09:57:35.379Z,82.42
2022-12-23T10:00:13.200Z,82.98
2022-12-23T10:02:57.327Z,82.66
2022-12-23T10:05:36.998Z,81.52
2022-12-23T10:08:12.865Z,82.35
2022-12-23T10:10:47.467Z,81.92
2022-12-23T10:13:26.721Z,82.07
2022-12-23T10:15:59.629Z,82.11
2022-12-23T10:18:43.466Z,81.76
2022-12-23T10:21:17.789Z,81.73
2022-12-23T10:23:52.388Z,80.40
2022-12-23T10:26:25.849Z,81.59
2022-12-23T10:29:01.812Z,81.68
2022-12-23T10:31:45.953Z,82.41
2022-12-23T10:34:22.969Z,82.67
2022-12-23T10:37:01.427Z,82.81
2022-12-23T10:39:37.675Z,81.75
2022-12-23T10:42:19.174Z,81.57
2022-12-23T10:45:19.744Z,81.13
2022-12-23T10:47:59.633Z,81.08
2022-12-23T10:50:51.866Z,81.20
2022-12-23T10:53:31.861Z,80.25
2022-12-23T10:56:02.027Z,80.80
2022-12-23T10:58:32.369Z,81.26
2022-12-23T11:01:11.802Z,80.75
2022-12-23T11:03:52.989Z,81.28
2022-12-23T11:06:23.820Z,80.36
2022-12-23T11:08:53.526Z,80.03
2022-12-23T11:11:22.831Z,80.74
2022-12-23T11:13:52.440Z,80.39
2022-12-23T11:16:26.207Z,79.65
2022-12-23T11:18:59.656Z,79.62
2022-12-23T11:21:32.251Z,80.19
2022-12-23T11:24:10.521Z,80.70
2022-12-23T11:26:39.618Z,80.33
2022-12-23T11:29:13.382Z,79.86
2022-12-23T11:31:45.263Z,79.08
2022-12-23T11:34:19.923Z,78.59
2022-12-23T11:37:00.294Z,78.93
2022-12-23T11:39:36.453Z,79.29
2022-12-23T11:42:12.590Z,78.65
2022-12-23T11:44:45.956Z,78.22
2022-12-23T11:47:29.255Z,78.53
2022-12-23T11:50:00.457Z,78.88
2022-12-23T11:52:33.489Z,79.09
2022-12-23T11:55:04.007Z,78.70
2022-12-23T11:57:39.769Z,78.40
2022-12-23T12:00:20.549Z,78.78
2022-12-23T12:02:53.114Z,79.65
2022-12-23T12:05:26.037Z,80.23
2022-12-23T12:08:02.474Z,79.98
2022-12-23T12:10:35.928Z,79.43
2022-12-23T12:13:07.081Z,79.69
2022-12-23T12:15:44.402Z,80.09
2022-12-23T12:18:16.773Z,80.13
2022-12-23T12:20:49.711Z,79.99
2022-12-23T12:23:26.705Z,81.05
2022-12-23T12:26:01.829Z,80.37
2022-12-23T12:28:36.242Z,79.95
2022-12-23T12:31:17.434Z,79.63
2022-12-23T12:33:51.052Z,79.56
2022-12-23T12:36:31.785Z,79.56
2022-12-23T12:39:02.363Z,79.09
2022-12-23T12:41:38.125Z,80.51
2022-12-23T12:44:24.431Z,81.13
2022-12-23T12:46:59.699Z,80.21
2022-12-23T12:49:37.032Z,79.27
2022-12-23T12:52:13.887Z,79.67
2022-12-23T12:54:51.252Z,80.56
2022-12-23T12:57:24.075Z,80.59
2022-12-23T13:00:03.643Z,79.71
2022-12-23T13:03:03.120Z,78.41
2022-12-23T13:05:54.065Z,79.69
2022-12-23T13:08:42.655Z,79.88
2022-12-23T13:11:26.516Z,80.70
2022-12-23T13:14:03.393Z,80.62
2022-12-23T13:16:44.648Z,79.71
2022-12-23T13:19:23.752Z,79.54
2022-12-23T13:22:02.715Z,78.83
2022-12-23T13:24:38.855Z,79.26
2022-12-23T13:27:16.310Z,79.02
2022-12-23T13:30:04.285Z,78.82
2022-12-23T13:32:44.371Z,78.89
2022-12-23T13:35:26.656Z,79.43
2022-12-23T13:38:05.179Z,78.64
2022-12-23T13:40:44.699Z,79.67
2022-12-23T13:43:20.279Z,79.78
2022-12-23T13:45:51.581Z,80.46
2022-12-23T13:48:33.391Z,80.25
2022-12-23T13:51:09.171Z,79.55
2022-12-23T13:54:00.659Z,80.05
2022-12-23T13:56:42.805Z,80.27
2022-12-23T13:59:16.684Z,79.06
2022-12-23T14:01:48.275Z,79.92
2022-12-23T14:04:38.050Z,80.23
2022-12-23T14:07:20.259Z,80.04
2022-12-23T14:09:56.334Z,80.06
2022-12-23T14:12:29.771Z,81.13
2022-12-23T14:15:36.283Z,81.48
2022-12-23T14:18:17.955Z,81.98
2022-12-23T14:20:54.097Z,82.44
2022-12-23T14:23:41.842Z,82.40
2022-12-23T14:26:37.590Z,82.43
2022-12-23T14:29:27.634Z,82.84
2022-12-23T14:31:59.523Z,82.65
2022-12-23T14:34:32.010Z,83.84
2022-12-23T14:37:34.646Z,82.96
2022-12-23T14:40:45.675Z,82.45
2022-12-23T14:43:34.127Z,82.39
2022-12-23T14:46:06.013Z,82.90
2022-12-23T14:52:38.035Z,84.53
2022-12-23T14:55:45.218Z,84.22
2022-12-23T14:58:35.202Z,84.48
2022-12-23T15:01:11.041Z,84.83
2022-12-23T15:03:48.122Z,84.88
2022-12-23T15:06:21.745Z,84.28
2022-12-23T15:08:54.524Z,83.88
2022-12-23T15:11:28.371Z,84.53
2022-12-23T15:14:04.372Z,83.93
2022-12-23T15:16:36.731Z,84.42
2022-12-23T15:19:20.162Z,83.77
2022-12-23T15:21:58.321Z,82.62
2022-12-23T15:24:32.693Z,81.80
2022-12-23T15:29:54.829Z,81.17
2022-12-23T15:32:26.162Z,80.10
2022-12-23T15:35:06.461Z,79.84
2022-12-23T15:37:36.240Z,80.20
2022-12-23T15:40:12.993Z,80.24
2022-12-23T15:42:49.767Z,79.45
2022-12-23T15:45:34.905Z,79.56
2022-12-23T15:48:05.264Z,80.52
2022-12-23T15:50:41.810Z,81.16
2022-12-23T15:53:15.950Z,81.64
2022-12-23T15:55:46.199Z,81.30
2022-12-23T15:58:23.659Z,81.47
2022-12-23T16:00:57.597Z,81.61
2022-12-23T16:03:33.129Z,81.31
2022-12-23T16:06:11.488Z,81.07
2022-12-23T16:08:40.867Z,80.63
2022-12-23T16:11:16.250Z,81.93
2022-12-23T16:13:58.743Z,81.71
2022-12-23T16:16:43.194Z,81.17
2022-12-23T16:19:40.352Z,81.04
2022-12-23T16:22:26.876Z,81.22
2022-12-23T16:25:02.983Z,81.37
2022-12-23T16:27:40.540Z,80.94
2022-12-23T16:30:17.077Z,80.39
2022-12-23T16:32:52.349Z,80.50
2022-12-23T16:35:31.899Z,80.30
2022-12-23T16:38:17.148Z,81.02
2022-12-23T16:40:48.148Z,80.54
2022-12-23T16:43:18.395Z,80.54
2022-12-23T16:45:50.931Z,80.46
2022-12-23T16:48:26.639Z,80.74
2022-12-23T16:50:56.176Z,81.02
2022-12-23T16:53:26.057Z,80.68
2022-12-23T16:56:00.539Z,80.63
2022-12-23T16:58:30.659Z,80.29
2022-12-23T17:00:59.873Z,81.22
2022-12-23T17:03:32.646Z,81.34
2022-12-23T17:06:01.961Z,83.12
2022-12-23T17:08:31.422Z,83.54
2022-12-23T17:11:00.997Z,83.78
2022-12-23T17:13:30.384Z,84.08
2022-12-23T17:15:59.724Z,85.35
2022-12-23T17:18:30.535Z,85.31
2022-12-23T17:20:59.776Z,85.12
2022-12-23T17:23:33.268Z,84.56
2022-12-23T17:26:02.368Z,83.70
2022-12-23T17:28:34.142Z,83.74
2022-12-23T17:31:08.635Z,83.16
2022-12-23T17:33:42.951Z,83.09
2022-12-23T17:36:14.074Z,82.37
2022-12-23T17:38:43.851Z,81.70
2022-12-23T17:41:21.225Z,81.35
2022-12-23T17:43:50.677Z,81.87
2022-12-23T17:46:19.995Z,81.32
2022-12-23T17:48:50.844Z,80.82
2022-12-23T17:51:22.024Z,81.77
2022-12-23T17:53:57.608Z,81.44
2022-12-23T17:56:30.358Z,81.74
2022-12-23T17:58:59.770Z,81.49
2022-12-23T18:01:31.015Z,82.31
2022-12-23T18:04:02.385Z,81.46
2022-12-23T18:06:31.769Z,82.20
2022-12-23T18:09:01.167Z,82.68
2022-12-23T18:11:35.073Z,82.12
2022-12-23T18:14:05.601Z,82.74
2022-12-23T18:16:34.747Z,82.31
2022-12-23T18:19:07.517Z,83.67
2022-12-23T18:21:37.117Z,84.10
2022-12-23T18:24:07.692Z,84.05
2022-12-23T18:26:37.414Z,84.62
2022-12-23T18:29:06.959Z,84.52
2022-12-23T18:31:37.068Z,83.78
2022-12-23T18:34:08.320Z,83.67
2022-12-23T18:36:37.523Z,83.92
2022-12-23T18:39:06.885Z,84.11
2022-12-23T18:41:36.195Z,84.10
2022-12-23T18:44:06.117Z,84.32
2022-12-23T18:46:35.416Z,85.13
2022-12-23T18:49:09.014Z,85.15
2022-12-23T18:51:40.365Z,86.09
2022-12-23T18:54:14.200Z,85.88
2022-12-23T18:56:43.362Z,85.76
2022-12-23T18:59:21.408Z,84.52
2022-12-23T19:01:57.317Z,84.52
2022-12-23T19:04:28.658Z,85.64
2022-12-23T19:06:58.770Z,86.21
2022-12-23T19:09:28.598Z,86.59
2022-12-23T19:11:58.631Z,85.88
2022-12-23T19:14:28.652Z,85.15
2022-12-23T19:17:00.124Z,84.33
2022-12-23T19:19:31.006Z,85.65
2022-12-23T19:22:00.290Z,85.11
2022-12-23T19:24:29.882Z,86.76
2022-12-23T19:26:59.115Z,86.03
2022-12-23T19:29:29.880Z,86.77
2022-12-23T19:31:59.688Z,86.47
2022-12-23T19:34:31.046Z,87.14
2022-12-23T19:37:01.748Z,86.82
2022-12-23T19:39:31.473Z,86.27
2022-12-23T19:42:00.933Z,84.55
2022-12-23T19:44:32.291Z,82.86
2022-12-23T19:47:01.945Z,79.08
2022-12-23T19:49:34.791Z,77.70
2022-12-23T19:52:04.307Z,76.80
2022-12-23T19:54:34.138Z,76.99
2022-12-23T19:57:03.573Z,78.08
2022-12-23T19:59:33.937Z,77.90
2022-12-23T20:02:03.377Z,77.83
2022-12-23T20:04:35.330Z,77.66
2022-12-23T20:07:04.504Z,78.41
2022-12-23T20:09:34.103Z,78.49
2022-12-23T20:12:04.861Z,80.53
2022-12-23T20:14:34.683Z,80.09
2022-12-23T20:17:04.287Z,81.31
2022-12-23T20:19:39.064Z,80.84
2022-12-23T20:22:13.124Z,81.13
2022-12-23T20:24:42.579Z,81.55
2022-12-23T20:27:14.819Z,81.80
2022-12-23T20:29:45.403Z,81.65
2022-12-23T20:32:14.935Z,83.64
2022-12-23T20:34:45.835Z,83.00
2022-12-23T20:37:15.897Z,82.10
2022-12-23T20:39:45.581Z,82.92
2022-12-23T20:42:14.873Z,82.60
2022-12-23T20:44:44.524Z,83.49
2022-12-23T20:47:15.650Z,83.46
2022-12-23T20:49:46.496Z,83.37
2022-12-23T20:52:15.675Z,84.74
2022-12-23T20:54:45.668Z,85.87
2022-12-23T20:57:15.040Z,85.31
2022-12-23T20:59:44.570Z,84.60
2022-12-23T21:02:15.949Z,84.79
2022-12-23T21:04:47.220Z,84.94
2022-12-23T21:07:16.800Z,84.24
2022-12-23T21:09:46.496Z,84.27
2022-12-23T21:12:15.780Z,84.37
2022-12-23T21:14:45.448Z,84.71
2022-12-23T21:17:14.598Z,85.03
2022-12-23T21:19:45.380Z,85.17
2022-12-23T21:22:14.534Z,85.00
2022-12-23T21:24:44.581Z,85.59
2022-12-23T21:27:13.925Z,85.51
2022-12-23T21:29:43.342Z,85.42
2022-12-23T21:32:12.749Z,85.41
2022-12-23T21:34:42.462Z,85.47
2022-12-23T21:37:13.049Z,85.47
2022-12-23T21:39:42.583Z,85.81
2022-12-23T21:42:11.892Z,85.89
2022-12-23T21:44:41.508Z,85.11
2022-12-23T21:47:13.232Z,85.72
2022-12-23T21:49:44.253Z,85.34
2022-12-23T21:52:14.804Z,85.11
2022-12-23T21:54:44.266Z,85.22
2022-12-23T21:57:13.412Z,85.15
2022-12-23T21:59:42.948Z,85.57
2022-12-23T22:02:16.453Z,84.78
2022-12-23T22:04:46.123Z,84.82
2022-12-23T22:07:16.766Z,85.53
2022-12-23T22:09:46.206Z,84.75
2022-12-23T22:12:15.497Z,84.99
2022-12-23T22:14:44.888Z,85.97
2022-12-23T22:17:14.060Z,85.78
2022-12-23T22:19:43.556Z,85.61
2022-12-23T22:22:12.876Z,85.64
2022-12-23T22:24:43.632Z,85.72
2022-12-23T22:27:12.819Z,85.04
2022-12-23T22:29:42.519Z,85.91
2022-12-23T22:32:11.917Z,85.79
2022-12-23T22:34:41.525Z,85.25
2022-12-23T22:37:10.899Z,85.69
2022-12-23T22:39:40.470Z,85.04
2022-12-23T22:42:10.985Z,84.78
2022-12-23T22:44:40.364Z,85.42
2022-12-23T22:47:09.707Z,84.76
2022-12-23T22:49:39.270Z,84.48
2022-12-23T22:52:08.379Z,85.38
2022-12-23T22:54:37.826Z,85.28
2022-12-23T22:57:07.065Z,84.97
2022-12-23T22:59:38.530Z,85.45
2022-12-23T23:02:07.803Z,85.20
2022-12-23T23:04:37.330Z,84.66
2022-12-23T23:07:08.254Z,84.41
2022-12-23T23:09:37.984Z,85.04
2022-12-23T23:12:07.341Z,85.00
2022-12-23T23:14:52.043Z,84.76
2022-12-23T23:17:22.558Z,85.03
2022-12-23T23:19:52.659Z,85.44
2022-12-23T23:22:23.309Z,84.90
2022-12-23T23:24:52.842Z,84.69
2022-12-23T23:27:22.005Z,84.72
2022-12-23T23:29:52.817Z,84.25
2022-12-23T23:32:22.088Z,84.24
2022-12-23T23:34:51.475Z,84.26
2022-12-23T23:37:20.548Z,83.77
2022-12-23T23:39:50.073Z,84.23
2022-12-23T23:42:19.202Z,84.52
2022-12-23T23:44:48.766Z,84.61
2022-12-23T23:47:19.442Z,84.85
2022-12-23T23:49:48.910Z,84.42
2022-12-23T23:52:18.170Z,84.24
2022-12-23T23:54:47.615Z,84.35
2022-12-23T23:57:16.703Z,84.24
2022-12-23T23:59:46.171Z,83.83
